Terminal Aerodrome Forecast
Issued by NWS

Home | Current Version | Previous Version | Text Only | Print | Product List | Glossary On
Versions: 1 2 3 4 5 6 7 8 9 10 11 12 13 14 15 16 17 18
000
FTUS42 KJAX 240800 AAA
TAFCRG
TAF AMD
KCRG 240814Z 2408/2506 00000KT P6SM SCT060
      TEMPO 2410/2412 3SM BR BKN004
     FM241400 12007KT P6SM SCT040
     FM241800 12012KT P6SM SCT050=

USA.gov is the U.S. government's official web portal to all federal, state and local government web resources and services.